Time;durP1;ratioP1;P1;durP2;ratioP2;P2;SDS_P1;SDS_P2;PMS_P1;PMS_P2;Temp;Humidity;BMP_temperature;BMP_pressure;BME280_temperature;BME280_humidity;BME280_pressure;Samples;Min_cycle;Max_cycle;Signal;HPM_P1;HPM_P2
2020/12/13 00:01:12;;;;;;;85.35;35.45;;;7.80;99.90;;;;;;5095232;28;20365;-69
2020/12/13 00:03:37;;;;;;;84.25;34.63;;;7.80;99.90;;;;;;5095083;28;20035;-69
2020/12/13 00:06:03;;;;;;;80.40;35.13;;;7.90;99.90;;;;;;5096557;28;20107;-69
2020/12/13 00:08:29;;;;;;;79.72;35.45;;;7.80;99.90;;;;;;5096227;28;20028;-69
2020/12/13 00:10:56;;;;;;;82.10;35.42;;;7.80;99.90;;;;;;5077448;28;20055;-69
2020/12/13 00:13:22;;;;;;;83.60;35.20;;;7.80;99.90;;;;;;5094755;28;20134;-69
2020/12/13 00:15:48;;;;;;;84.78;36.08;;;7.80;99.90;;;;;;5096122;28;20027;-69
2020/12/13 00:18:13;;;;;;;79.38;34.50;;;7.90;99.90;;;;;;5096059;28;20103;-69
2020/12/13 00:20:39;;;;;;;77.28;34.65;;;7.90;99.90;;;;;;5096042;28;20485;-69
2020/12/13 00:23:05;;;;;;;88.32;36.38;;;7.90;99.90;;;;;;5095976;28;20526;-69
2020/12/13 00:25:30;;;;;;;77.85;36.05;;;8.00;99.90;;;;;;5095892;28;20031;-69
2020/12/13 00:27:56;;;;;;;81.95;35.15;;;8.00;99.90;;;;;;5111511;28;20020;-69
2020/12/13 00:30:21;;;;;;;80.78;35.80;;;8.00;99.90;;;;;;5094580;28;20449;-69
2020/12/13 00:32:47;;;;;;;80.90;34.13;;;8.00;99.90;;;;;;5093932;28;20122;-69
2020/12/13 00:35:14;;;;;;;80.05;33.95;;;8.00;99.90;;;;;;5095748;28;20020;-69
2020/12/13 00:37:39;;;;;;;79.57;33.15;;;8.00;99.90;;;;;;5095428;28;20023;-69
2020/12/13 00:40:05;;;;;;;79.40;34.17;;;8.00;99.90;;;;;;5094628;28;20028;-69
2020/12/13 00:42:31;;;;;;;83.18;34.53;;;7.90;99.90;;;;;;5095595;28;20028;-69
2020/12/13 00:44:56;;;;;;;67.85;32.30;;;8.00;99.90;;;;;;5095223;28;20050;-69
2020/12/13 00:47:22;;;;;;;71.78;31.95;;;8.00;99.90;;;;;;5095519;28;20035;-69
2020/12/13 00:49:47;;;;;;;77.88;32.22;;;8.00;99.90;;;;;;5094206;28;20026;-69
2020/12/13 00:52:13;;;;;;;80.68;33.55;;;8.00;99.90;;;;;;5094265;28;20381;-69
2020/12/13 00:54:38;;;;;;;70.72;32.92;;;8.00;99.90;;;;;;5092717;28;20031;-69
2020/12/13 00:57:04;;;;;;;70.07;33.30;;;7.90;99.90;;;;;;5095298;28;20024;-69
2020/12/13 00:59:29;;;;;;;76.43;33.90;;;8.00;99.90;;;;;;5094706;28;20115;-69
2020/12/13 01:01:55;;;;;;;76.88;33.75;;;7.90;99.90;;;;;;5094022;28;20028;-69
2020/12/13 01:04:21;;;;;;;77.63;33.72;;;7.90;99.90;;;;;;5095173;28;20032;-69
2020/12/13 01:06:47;;;;;;;69.18;31.95;;;8.00;99.90;;;;;;5095143;28;20035;-70
2020/12/13 01:09:12;;;;;;;76.72;32.08;;;8.00;99.90;;;;;;5093951;28;20062;-69
2020/12/13 01:11:38;;;;;;;76.50;31.88;;;8.00;99.90;;;;;;5094306;28;20037;-69
2020/12/13 01:14:04;;;;;;;74.43;33.20;;;8.00;99.90;;;;;;5095006;28;20364;-69
2020/12/13 01:16:30;;;;;;;80.28;33.42;;;8.00;99.90;;;;;;5094663;28;20024;-69
2020/12/13 01:18:59;;;;;;;76.55;32.22;;;8.10;99.90;;;;;;5076288;28;20048;-69
2020/12/13 01:21:26;;;;;;;71.28;32.50;;;8.10;99.90;;;;;;5094866;28;20458;-69
2020/12/13 01:23:52;;;;;;;77.88;33.85;;;8.10;99.90;;;;;;5093436;28;20070;-69
2020/12/13 01:26:20;;;;;;;78.65;33.25;;;8.10;99.90;;;;;;5094788;28;20461;-69
2020/12/13 01:28:47;;;;;;;79.88;32.30;;;8.10;99.90;;;;;;5094475;28;20449;-69
2020/12/13 01:31:15;;;;;;;79.53;34.08;;;8.10;99.90;;;;;;5094348;28;20031;-69
2020/12/13 01:33:40;;;;;;;90.05;35.78;;;8.10;99.90;;;;;;5093184;28;20035;-69
2020/12/13 01:36:10;;;;;;;85.07;35.53;;;8.10;99.90;;;;;;5092828;28;20020;-69
2020/12/13 01:38:36;;;;;;;97.88;40.35;;;8.10;99.90;;;;;;5094577;28;20031;-69
2020/12/13 01:41:02;;;;;;;103.18;38.70;;;8.10;99.90;;;;;;5092761;28;20106;-69
2020/12/13 01:43:27;;;;;;;101.47;41.63;;;8.10;99.90;;;;;;5093334;28;20490;-69
2020/12/13 01:45:53;;;;;;;97.15;41.22;;;8.10;99.90;;;;;;5093037;28;20088;-69
2020/12/13 01:48:20;;;;;;;107.53;42.53;;;8.10;99.90;;;;;;5093458;28;20028;-69
2020/12/13 01:51:08;;;;;;;110.63;43.90;;;8.00;99.90;;;;;;5109952;28;20150;-69
2020/12/13 01:53:34;;;;;;;112.07;41.47;;;8.10;99.90;;;;;;5093677;28;20019;-69
2020/12/13 01:56:01;;;;;;;101.15;40.42;;;8.10;99.90;;;;;;5093784;28;20013;-69
2020/12/13 01:58:30;;;;;;;111.53;39.17;;;8.10;99.90;;;;;;5094284;28;20016;-69
2020/12/13 02:00:59;;;;;;;107.57;41.38;;;8.00;99.90;;;;;;5094260;28;20091;-69
2020/12/13 02:03:32;;;;;;;104.68;40.80;;;8.10;99.90;;;;;;5094249;28;20024;-69
2020/12/13 02:06:02;;;;;;;106.97;41.47;;;8.10;99.90;;;;;;5094085;28;20051;-69
2020/12/13 02:08:38;;;;;;;106.85;40.65;;;8.10;99.90;;;;;;5093876;28;20051;-69
2020/12/13 02:11:06;;;;;;;103.63;39.45;;;8.10;99.90;;;;;;5093432;28;20054;-69
2020/12/13 02:13:32;;;;;;;108.53;41.58;;;8.20;99.90;;;;;;5094148;28;20022;-69
2020/12/13 02:15:57;;;;;;;115.63;43.95;;;8.20;99.90;;;;;;5094104;28;20099;-69
2020/12/13 02:18:23;;;;;;;109.65;41.30;;;8.30;99.90;;;;;;5094094;28;20081;-69
2020/12/13 02:20:49;;;;;;;114.57;44.08;;;8.20;99.90;;;;;;5094076;28;20024;-69
2020/12/13 02:23:14;;;;;;;114.88;45.10;;;8.20;99.90;;;;;;5094022;28;20024;-69
2020/12/13 02:25:40;;;;;;;122.38;45.00;;;8.20;99.90;;;;;;5075481;28;20027;-69
2020/12/13 02:28:05;;;;;;;126.03;44.80;;;8.20;99.90;;;;;;5092168;28;20024;-69
2020/12/13 02:30:32;;;;;;;123.82;44.78;;;8.20;99.90;;;;;;5093642;28;20020;-69
2020/12/13 02:32:58;;;;;;;124.35;44.50;;;8.20;99.90;;;;;;5093945;28;20028;-69
2020/12/13 02:35:24;;;;;;;139.65;48.03;;;8.20;99.90;;;;;;5093946;28;20020;-69
2020/12/13 02:37:50;;;;;;;140.07;47.92;;;8.20;99.90;;;;;;5093928;28;20113;-69
2020/12/13 02:40:16;;;;;;;135.98;47.90;;;8.20;99.90;;;;;;5093901;28;20035;-69
2020/12/13 02:42:42;;;;;;;131.02;46.92;;;8.30;99.90;;;;;;5093878;28;20028;-69
2020/12/13 02:45:07;;;;;;;145.00;48.42;;;8.30;99.90;;;;;;5093845;28;20077;-69
2020/12/13 02:47:33;;;;;;;133.73;48.20;;;8.30;99.90;;;;;;5093538;28;20024;-69
2020/12/13 02:49:58;;;;;;;146.40;47.75;;;8.30;99.90;;;;;;5093704;28;20020;-69
2020/12/13 02:52:25;;;;;;;138.18;48.75;;;8.20;99.90;;;;;;5092335;28;20465;-69
2020/12/13 02:54:50;;;;;;;138.65;47.30;;;8.20;99.90;;;;;;5093767;28;20024;-69
2020/12/13 02:57:16;;;;;;;132.27;46.22;;;8.20;99.90;;;;;;5092597;28;20517;-69
2020/12/13 02:59:41;;;;;;;127.88;43.38;;;8.30;99.90;;;;;;5093712;28;20028;-69
2020/12/13 03:02:07;;;;;;;136.40;45.17;;;8.30;99.90;;;;;;5093661;28;20457;-69
2020/12/13 03:04:32;;;;;;;133.88;46.15;;;8.20;99.90;;;;;;5093664;28;20063;-69
2020/12/13 03:06:58;;;;;;;139.07;46.65;;;8.20;99.90;;;;;;5074985;28;20362;-69
2020/12/13 03:09:24;;;;;;;134.43;46.63;;;8.30;99.90;;;;;;5074988;28;20032;-69
2020/12/13 03:11:49;;;;;;;131.05;42.38;;;8.20;99.90;;;;;;5092812;28;20580;-69
2020/12/13 03:14:15;;;;;;;139.98;44.75;;;8.30;99.90;;;;;;5092132;28;20370;-69
2020/12/13 03:16:40;;;;;;;146.88;46.22;;;8.30;99.90;;;;;;5092101;28;20016;-69
2020/12/13 03:19:06;;;;;;;136.13;45.70;;;8.30;99.90;;;;;;5095068;28;20030;-69
2020/12/13 03:21:31;;;;;;;142.82;46.40;;;8.20;99.90;;;;;;5097193;28;20031;-69
2020/12/13 03:23:57;;;;;;;139.95;46.13;;;8.30;99.90;;;;;;5097121;28;20034;-69
2020/12/13 03:26:23;;;;;;;128.63;44.83;;;8.30;99.90;;;;;;5097083;28;20033;-69
2020/12/13 03:28:48;;;;;;;144.50;47.38;;;8.30;99.90;;;;;;5095887;28;20121;-69
2020/12/13 03:31:14;;;;;;;135.13;46.83;;;8.30;99.90;;;;;;5095098;28;20080;-69
2020/12/13 03:33:40;;;;;;;119.43;42.03;;;8.30;99.90;;;;;;5095496;28;20024;-69
2020/12/13 03:36:05;;;;;;;125.85;44.42;;;8.30;99.90;;;;;;5096883;28;20028;-69
2020/12/13 03:38:31;;;;;;;137.23;44.15;;;8.20;99.90;;;;;;5096586;28;20020;-69
2020/12/13 03:40:57;;;;;;;135.68;46.05;;;8.20;99.90;;;;;;5094979;28;20028;-69
2020/12/13 03:43:22;;;;;;;130.07;45.10;;;8.20;99.90;;;;;;5095342;28;20034;-69
2020/12/13 03:45:48;;;;;;;130.45;45.33;;;8.30;99.90;;;;;;5096175;28;20028;-69
2020/12/13 03:48:13;;;;;;;140.05;48.03;;;8.30;99.90;;;;;;5096670;28;20496;-69
2020/12/13 03:50:39;;;;;;;145.10;46.95;;;8.20;99.90;;;;;;5095336;28;20078;-69
2020/12/13 03:53:13;;;;;;;132.98;45.42;;;8.30;99.90;;;;;;5095156;28;20416;-69
2020/12/13 03:55:40;;;;;;;146.70;48.00;;;8.20;99.90;;;;;;5096514;28;20024;-69
2020/12/13 03:58:06;;;;;;;150.95;48.85;;;8.30;99.90;;;;;;5096477;28;20485;-69
2020/12/13 04:00:33;;;;;;;142.75;51.03;;;8.20;99.90;;;;;;5096443;28;20020;-69
2020/12/13 04:03:02;;;;;;;144.43;48.92;;;8.30;99.90;;;;;;5096400;28;20024;-69
2020/12/13 04:05:27;;;;;;;142.07;49.65;;;8.30;99.90;;;;;;5111782;28;20112;-69
2020/12/13 04:07:53;;;;;;;147.90;51.17;;;8.20;99.90;;;;;;5095285;28;20118;-69
2020/12/13 04:10:19;;;;;;;155.52;49.35;;;8.20;99.90;;;;;;5095609;28;20044;-69
2020/12/13 04:12:47;;;;;;;149.85;50.42;;;8.10;99.90;;;;;;5094379;28;20020;-69
2020/12/13 04:15:13;;;;;;;170.98;51.70;;;8.10;99.90;;;;;;5077504;28;20059;-69
2020/12/13 04:17:39;;;;;;;153.02;50.75;;;8.10;99.90;;;;;;5094294;28;20024;-69
2020/12/13 04:20:06;;;;;;;164.55;52.33;;;8.20;99.90;;;;;;5077389;28;20162;-69
2020/12/13 04:22:32;;;;;;;151.00;50.67;;;8.20;99.90;;;;;;5095770;28;20020;-69
2020/12/13 04:24:58;;;;;;;153.77;51.20;;;8.20;99.90;;;;;;5094994;28;20039;-70
2020/12/13 04:27:23;;;;;;;146.10;49.58;;;8.10;99.90;;;;;;5095944;28;20027;-69
2020/12/13 04:29:49;;;;;;;151.35;52.83;;;8.20;99.90;;;;;;5094725;28;20476;-69
2020/12/13 04:32:15;;;;;;;148.75;49.42;;;8.20;99.90;;;;;;5095207;28;20024;-69
2020/12/13 04:34:41;;;;;;;139.30;47.00;;;8.20;99.90;;;;;;5095753;28;20465;-69
2020/12/13 04:37:07;;;;;;;143.23;48.33;;;8.20;99.90;;;;;;5095720;28;20522;-69
2020/12/13 04:39:34;;;;;;;153.57;50.80;;;8.10;99.90;;;;;;5095705;28;20407;-69
2020/12/13 04:42:01;;;;;;;149.68;49.85;;;8.20;99.90;;;;;;5095629;28;20483;-69
2020/12/13 04:44:27;;;;;;;150.68;50.83;;;8.20;99.90;;;;;;5095302;28;20016;-69
2020/12/13 04:46:54;;;;;;;147.88;49.97;;;8.10;99.90;;;;;;5095577;28;20441;-69
2020/12/13 04:49:23;;;;;;;145.00;51.00;;;8.10;99.90;;;;;;5095200;28;20103;-69
2020/12/13 04:51:50;;;;;;;154.38;51.85;;;8.00;99.90;;;;;;5095128;28;20460;-69
2020/12/13 04:54:26;;;;;;;170.35;53.72;;;8.10;99.90;;;;;;5095142;28;20016;-69
2020/12/13 04:56:54;;;;;;;158.73;51.47;;;8.10;99.90;;;;;;5095362;28;20044;-69
2020/12/13 04:59:20;;;;;;;151.40;54.08;;;8.10;99.90;;;;;;5095305;28;20068;-69
2020/12/13 05:01:46;;;;;;;153.02;50.88;;;8.20;99.90;;;;;;5093589;28;20024;-69
2020/12/13 05:04:12;;;;;;;162.00;53.88;;;8.30;99.90;;;;;;5094969;28;20093;-69
2020/12/13 05:06:40;;;;;;;168.45;53.42;;;8.20;99.90;;;;;;5095157;28;20051;-69
2020/12/13 05:09:08;;;;;;;170.35;51.97;;;8.30;99.90;;;;;;5095129;28;20032;-69
2020/12/13 05:11:33;;;;;;;169.27;52.90;;;8.30;99.90;;;;;;5093193;28;20046;-69
2020/12/13 05:13:59;;;;;;;159.20;53.95;;;8.30;99.90;;;;;;5093193;28;20020;-69
2020/12/13 05:16:25;;;;;;;170.52;53.10;;;8.40;99.90;;;;;;5094717;28;20016;-69
2020/12/13 05:18:52;;;;;;;166.82;54.17;;;8.30;99.90;;;;;;5094410;28;20038;-69
2020/12/13 05:21:21;;;;;;;168.40;53.35;;;8.30;99.90;;;;;;5093750;28;20020;-69
2020/12/13 05:23:48;;;;;;;174.15;54.67;;;8.30;99.90;;;;;;5094860;28;20031;-69
2020/12/13 05:26:15;;;;;;;171.40;54.60;;;8.30;99.90;;;;;;5094816;28;20024;-69
2020/12/13 05:28:47;;;;;;;176.50;55.38;;;8.30;99.90;;;;;;5094771;28;20458;-69
2020/12/13 05:31:16;;;;;;;168.45;54.78;;;8.30;99.90;;;;;;5094420;28;20024;-69
2020/12/13 05:33:45;;;;;;;165.40;55.33;;;8.30;99.90;;;;;;5094116;28;20020;-69
2020/12/13 05:36:12;;;;;;;169.63;56.47;;;8.30;99.90;;;;;;5094129;28;20477;-69
2020/12/13 05:38:40;;;;;;;171.68;54.17;;;8.30;99.90;;;;;;5093166;28;20016;-69
2020/12/13 05:41:09;;;;;;;177.75;56.72;;;8.20;99.90;;;;;;5093896;28;20024;-69
2020/12/13 05:43:44;;;;;;;174.60;55.25;;;8.20;99.90;;;;;;5093109;28;20057;-69
2020/12/13 05:46:51;;;;;;;169.30;54.90;;;8.20;99.90;;;;;;5094501;28;20058;-69
2020/12/13 05:51:46;;;;;;;154.00;51.42;;;8.20;99.90;;;;;;5093627;28;20051;-69
2020/12/13 05:54:30;;;;;;;158.18;52.15;;;8.20;99.90;;;;;;5094098;28;20024;-69
2020/12/13 05:56:57;;;;;;;143.30;48.85;;;8.30;99.90;;;;;;5094363;28;20020;-69
2020/12/13 05:59:25;;;;;;;142.27;47.88;;;8.30;99.90;;;;;;5093737;28;20496;-69
2020/12/13 06:01:56;;;;;;;150.55;50.08;;;8.30;99.90;;;;;;5092497;28;20031;-69
2020/12/13 06:04:27;;;;;;;150.32;51.17;;;8.30;99.90;;;;;;5093710;28;20023;-69
2020/12/13 06:06:55;;;;;;;155.77;52.67;;;8.20;99.90;;;;;;5094202;28;20024;-69
2020/12/13 06:09:34;;;;;;;155.60;51.53;;;8.30;99.90;;;;;;5094140;28;20097;-69
2020/12/13 06:12:06;;;;;;;154.13;49.35;;;8.30;99.90;;;;;;5093551;28;20024;-69
2020/12/13 06:14:33;;;;;;;150.93;52.40;;;8.20;99.90;;;;;;5094200;28;20028;-69
2020/12/13 06:17:01;;;;;;;153.70;50.97;;;8.30;99.90;;;;;;5094125;28;20016;-69
2020/12/13 06:19:29;;;;;;;161.38;51.42;;;8.20;99.90;;;;;;5094085;28;20018;-69
2020/12/13 06:21:56;;;;;;;153.13;48.10;;;8.20;99.90;;;;;;5093812;28;20028;-69
2020/12/13 06:24:22;;;;;;;164.38;50.88;;;8.10;99.90;;;;;;5094060;28;20016;-69
2020/12/13 06:26:48;;;;;;;154.82;50.60;;;8.20;99.90;;;;;;5094029;28;20024;-69
2020/12/13 06:29:15;;;;;;;143.52;49.40;;;8.20;99.90;;;;;;5093998;28;20126;-69
2020/12/13 06:31:40;;;;;;;164.88;52.85;;;8.20;99.90;;;;;;5092794;28;20027;-69
2020/12/13 06:34:07;;;;;;;161.23;50.58;;;8.30;99.90;;;;;;5093415;28;20028;-69
2020/12/13 06:36:35;;;;;;;159.80;51.10;;;8.10;99.90;;;;;;5092433;28;20066;-69
2020/12/13 06:39:05;;;;;;;162.32;50.33;;;8.10;99.90;;;;;;5093668;28;20032;-69
2020/12/13 06:41:31;;;;;;;165.27;51.13;;;8.20;99.90;;;;;;5093946;28;20051;-69
2020/12/13 06:44:06;;;;;;;156.95;52.42;;;8.10;99.90;;;;;;5092493;28;20028;-69
2020/12/13 06:46:34;;;;;;;156.48;49.70;;;8.20;99.90;;;;;;5093160;28;20469;-69
2020/12/13 06:49:00;;;;;;;167.98;50.03;;;8.20;99.90;;;;;;5092306;28;20050;-69
2020/12/13 06:51:28;;;;;;;163.00;51.78;;;8.10;99.90;;;;;;5093480;28;20461;-69
2020/12/13 06:53:54;;;;;;;169.38;52.33;;;8.10;99.90;;;;;;5096095;28;20020;-69
2020/12/13 06:56:21;;;;;;;171.43;52.25;;;8.10;99.90;;;;;;5097748;28;20024;-69
2020/12/13 06:58:59;;;;;;;171.35;53.33;;;8.10;99.90;;;;;;5095856;28;20027;-69
2020/12/13 07:01:28;;;;;;;167.10;53.13;;;8.10;99.90;;;;;;5097294;28;20066;-69
2020/12/13 07:03:55;;;;;;;154.98;51.55;;;8.20;99.90;;;;;;5097288;28;20024;-69
2020/12/13 07:06:23;;;;;;;152.25;50.63;;;8.20;99.90;;;;;;5097253;28;20020;-69
2020/12/13 07:08:53;;;;;;;161.73;50.80;;;8.20;99.90;;;;;;5097456;28;20020;-69
2020/12/13 07:11:22;;;;;;;157.18;52.30;;;8.20;99.90;;;;;;5096780;28;20482;-69
2020/12/13 07:13:49;;;;;;;163.52;51.35;;;8.10;99.90;;;;;;5096812;28;20027;-69
2020/12/13 07:16:32;;;;;;;172.80;51.50;;;8.10;99.90;;;;;;5096768;28;20385;-69
2020/12/13 07:19:03;;;;;;;166.32;53.45;;;8.10;99.90;;;;;;5097000;28;20012;-69
2020/12/13 07:21:28;;;;;;;158.13;54.17;;;8.10;99.90;;;;;;5097207;28;20032;-69
2020/12/13 07:23:57;;;;;;;174.15;55.38;;;8.20;99.90;;;;;;5096035;28;20028;-69
2020/12/13 07:26:23;;;;;;;164.73;54.15;;;8.20;99.90;;;;;;5097135;28;20032;-69
2020/12/13 07:28:50;;;;;;;159.27;52.30;;;8.30;99.90;;;;;;5096088;28;20109;-69
2020/12/13 07:31:18;;;;;;;161.80;53.00;;;8.20;99.90;;;;;;5096410;28;20380;-69
2020/12/13 07:33:45;;;;;;;161.48;54.08;;;8.30;99.90;;;;;;5096987;28;20036;-69
2020/12/13 07:36:11;;;;;;;161.75;55.47;;;8.30;99.90;;;;;;5095399;28;20432;-69
2020/12/13 07:38:39;;;;;;;154.20;54.58;;;8.30;99.90;;;;;;5096620;28;20028;-69
2020/12/13 07:41:21;;;;;;;160.60;53.58;;;8.40;99.90;;;;;;5096888;28;20032;-69
2020/12/13 07:44:09;;;;;;;159.63;54.45;;;8.30;99.90;;;;;;5096818;28;20098;-69
2020/12/13 07:46:36;;;;;;;158.15;52.80;;;8.40;99.90;;;;;;5094935;28;20056;-69
2020/12/13 07:49:05;;;;;;;155.70;51.63;;;8.40;99.90;;;;;;5096441;28;20017;-69
2020/12/13 07:51:33;;;;;;;154.48;55.63;;;8.30;99.90;;;;;;5078293;28;20024;-69
2020/12/13 07:54:19;;;;;;;166.43;55.95;;;8.30;99.90;;;;;;5096619;28;20016;-69
2020/12/13 07:56:47;;;;;;;162.32;55.03;;;8.30;99.90;;;;;;5095980;28;20538;-69
2020/12/13 07:59:22;;;;;;;167.60;55.35;;;8.30;99.90;;;;;;5096532;28;20442;-69
2020/12/13 08:01:50;;;;;;;176.25;56.65;;;8.20;99.90;;;;;;5096478;28;20047;-69
2020/12/13 08:04:28;;;;;;;169.93;55.25;;;8.20;99.90;;;;;;5111834;27;20028;-69
2020/12/13 08:06:58;;;;;;;172.27;58.42;;;8.20;99.90;;;;;;5095853;28;20431;-69
2020/12/13 08:09:23;;;;;;;178.85;55.95;;;8.30;99.90;;;;;;5096336;28;20023;-69
2020/12/13 08:11:50;;;;;;;166.20;56.08;;;8.30;99.90;;;;;;5094300;28;20044;-69
2020/12/13 08:14:15;;;;;;;173.10;58.08;;;8.30;99.90;;;;;;5095940;28;20012;-69
2020/12/13 08:16:41;;;;;;;166.63;55.85;;;8.30;99.90;;;;;;5096011;28;20064;-69
2020/12/13 08:19:12;;;;;;;171.55;57.40;;;8.30;99.90;;;;;;5095962;28;20384;-69
2020/12/13 08:21:51;;;;;;;159.95;56.78;;;8.30;99.90;;;;;;5094682;28;20423;-69
2020/12/13 08:24:17;;;;;;;158.38;56.45;;;8.40;99.90;;;;;;5095733;28;20024;-69
2020/12/13 08:26:44;;;;;;;154.75;54.67;;;8.40;99.90;;;;;;5095689;28;20070;-69
2020/12/13 08:29:10;;;;;;;158.93;54.25;;;8.40;99.90;;;;;;5077288;28;20034;-69
2020/12/13 08:31:37;;;;;;;162.77;57.65;;;8.40;99.90;;;;;;5095509;28;20393;-69
2020/12/13 08:34:04;;;;;;;158.32;54.33;;;8.40;99.90;;;;;;5095804;28;20516;-69
2020/12/13 08:36:30;;;;;;;150.93;54.35;;;8.40;99.90;;;;;;5095216;28;20020;-69
2020/12/13 08:39:09;;;;;;;147.55;53.22;;;8.50;99.90;;;;;;5095159;28;20408;-69
2020/12/13 08:41:36;;;;;;;164.68;57.75;;;8.50;99.90;;;;;;5095376;28;20031;-69
2020/12/13 08:44:02;;;;;;;158.90;56.40;;;8.40;99.90;;;;;;5095652;28;20025;-69
2020/12/13 08:46:37;;;;;;;156.10;55.85;;;8.40;99.90;;;;;;5095596;28;20522;-69
2020/12/13 08:49:05;;;;;;;165.98;57.80;;;8.50;99.90;;;;;;5095543;28;20028;-69
2020/12/13 08:51:31;;;;;;;153.55;58.45;;;8.50;99.90;;;;;;5094851;28;20020;-69
2020/12/13 08:53:59;;;;;;;155.30;56.50;;;8.60;99.90;;;;;;5094844;28;20016;-69
2020/12/13 08:56:35;;;;;;;156.90;57.25;;;8.60;99.90;;;;;;5095390;28;20028;-69
2020/12/13 08:59:02;;;;;;;141.88;53.28;;;8.60;99.90;;;;;;5095118;28;20100;-69
2020/12/13 09:01:32;;;;;;;141.50;52.42;;;8.70;99.90;;;;;;5093836;28;20027;-69
2020/12/13 09:03:58;;;;;;;142.02;52.25;;;8.70;99.90;;;;;;5095256;28;20035;-69
2020/12/13 09:06:29;;;;;;;142.75;52.25;;;8.60;99.90;;;;;;5093784;28;20028;-69
2020/12/13 09:08:55;;;;;;;132.50;51.67;;;8.70;99.90;;;;;;5094876;28;20479;-69
2020/12/13 09:11:29;;;;;;;131.25;49.40;;;8.70;99.90;;;;;;5094475;28;20050;-69
2020/12/13 09:13:54;;;;;;;137.63;50.20;;;8.70;99.90;;;;;;5095038;28;20377;-69
2020/12/13 09:16:29;;;;;;;129.13;48.47;;;8.70;99.90;;;;;;5093164;28;20016;-69
2020/12/13 09:19:11;;;;;;;124.05;49.83;;;8.70;99.90;;;;;;5094700;28;20052;-69
2020/12/13 09:21:44;;;;;;;126.22;49.10;;;8.80;99.90;;;;;;5094860;28;20024;-69
2020/12/13 09:24:09;;;;;;;119.40;45.95;;;8.80;99.90;;;;;;5094894;28;20466;-69
2020/12/13 09:26:35;;;;;;;124.95;49.35;;;8.70;99.90;;;;;;5094816;28;20028;-69
2020/12/13 09:29:01;;;;;;;122.00;47.47;;;8.70;99.90;;;;;;5094183;28;20031;-69
2020/12/13 09:31:26;;;;;;;123.43;47.53;;;8.70;99.90;;;;;;5094064;28;20024;-69
2020/12/13 09:33:52;;;;;;;121.68;46.53;;;8.70;99.90;;;;;;5093179;28;20027;-69
2020/12/13 09:36:18;;;;;;;128.15;49.20;;;8.70;99.90;;;;;;5094388;28;20079;-69
2020/12/13 09:38:43;;;;;;;131.57;48.83;;;8.70;99.90;;;;;;5094637;28;20031;-69
2020/12/13 09:41:12;;;;;;;128.55;48.85;;;8.70;99.90;;;;;;5094045;28;20024;-69
2020/12/13 09:43:38;;;;;;;119.78;46.63;;;8.70;99.90;;;;;;5094547;28;20081;-69
2020/12/13 09:46:03;;;;;;;113.95;46.05;;;8.70;99.90;;;;;;5094510;28;20457;-69
2020/12/13 09:48:29;;;;;;;121.53;47.72;;;8.80;99.90;;;;;;5093316;28;20032;-69
2020/12/13 09:50:54;;;;;;;123.07;47.05;;;8.80;99.90;;;;;;5094359;28;20469;-69
2020/12/13 09:53:20;;;;;;;108.22;44.70;;;8.80;99.90;;;;;;5093244;28;20380;-69
2020/12/13 09:55:46;;;;;;;108.93;43.95;;;8.80;99.90;;;;;;5094289;28;20437;-69
2020/12/13 09:58:12;;;;;;;107.28;42.72;;;8.90;99.90;;;;;;5094301;28;20027;-69
2020/12/13 10:00:37;;;;;;;109.47;46.22;;;8.90;99.90;;;;;;5094225;28;20024;-69
2020/12/13 10:03:03;;;;;;;107.57;44.38;;;8.90;99.90;;;;;;5094051;28;20056;-69
2020/12/13 10:05:37;;;;;;;109.13;43.05;;;8.90;99.90;;;;;;5094171;28;20031;-69
2020/12/13 10:10:48;;;;;;;89.00;39.42;;;9.00;99.90;;;;;;5093106;28;20040;-69
2020/12/13 10:13:14;;;;;;;93.22;41.10;;;9.00;99.90;;;;;;5093537;28;20027;-69
2020/12/13 10:15:39;;;;;;;89.25;39.03;;;8.90;99.90;;;;;;5094081;28;20177;-69
2020/12/13 10:18:05;;;;;;;87.80;37.67;;;8.90;99.90;;;;;;5093739;28;20377;-69
2020/12/13 10:20:30;;;;;;;86.30;37.88;;;8.90;99.90;;;;;;5094087;28;20389;-69
2020/12/13 10:22:56;;;;;;;85.22;38.95;;;8.90;99.90;;;;;;5094046;28;20040;-69
2020/12/13 10:25:22;;;;;;;84.38;37.90;;;8.90;99.90;;;;;;5094025;28;20030;-69
2020/12/13 10:27:47;;;;;;;82.32;36.58;;;9.00;99.90;;;;;;5096550;28;20107;-69
2020/12/13 10:30:13;;;;;;;85.57;37.85;;;9.00;99.90;;;;;;5096247;28;20020;-69
2020/12/13 10:32:39;;;;;;;82.65;37.45;;;9.00;99.90;;;;;;5096334;28;20103;-69
2020/12/13 10:35:04;;;;;;;80.57;36.55;;;8.90;99.90;;;;;;5097822;28;20029;-69
2020/12/13 10:37:30;;;;;;;76.03;33.15;;;8.90;99.90;;;;;;5097491;28;20024;-69
2020/12/13 10:39:55;;;;;;;82.85;34.70;;;8.90;99.90;;;;;;5097469;28;20028;-69
2020/12/13 10:42:21;;;;;;;75.15;35.25;;;8.90;99.90;;;;;;5097975;28;20034;-69
2020/12/13 10:44:46;;;;;;;83.25;35.83;;;8.90;99.90;;;;;;5097912;28;20028;-69
2020/12/13 10:47:12;;;;;;;77.32;37.50;;;8.80;99.90;;;;;;5097938;28;20020;-69
2020/12/13 10:49:40;;;;;;;83.93;38.50;;;8.70;99.90;;;;;;5097869;28;20469;-69
2020/12/13 10:52:06;;;;;;;80.75;38.67;;;8.70;99.90;;;;;;5097439;28;20025;-69
2020/12/13 10:54:31;;;;;;;80.68;37.88;;;8.60;99.90;;;;;;5097762;28;20058;-69
2020/12/13 10:56:58;;;;;;;71.20;31.35;;;8.60;99.90;;;;;;5097418;28;20021;-69
2020/12/13 10:59:23;;;;;;;84.70;38.38;;;8.50;99.90;;;;;;5096250;28;20029;-69
2020/12/13 11:01:49;;;;;;;72.35;35.97;;;8.50;99.90;;;;;;5096174;28;20040;-69
2020/12/13 11:04:17;;;;;;;88.90;39.38;;;8.50;99.90;;;;;;5097604;28;20028;-69
2020/12/13 11:06:44;;;;;;;78.63;34.83;;;8.50;99.90;;;;;;5097213;28;20374;-69
2020/12/13 11:09:10;;;;;;;77.63;37.22;;;8.50;99.90;;;;;;5095682;28;20546;-69
2020/12/13 11:11:36;;;;;;;77.20;35.60;;;8.60;99.90;;;;;;5095558;28;20071;-69
2020/12/13 11:14:01;;;;;;;78.32;35.53;;;8.60;99.90;;;;;;5097385;28;20028;-69
2020/12/13 11:16:27;;;;;;;81.13;36.83;;;8.60;99.90;;;;;;5097318;28;20070;-69
2020/12/13 11:18:52;;;;;;;74.35;34.90;;;8.50;99.90;;;;;;5097034;28;20428;-69
2020/12/13 11:21:18;;;;;;;75.45;36.58;;;8.50;99.90;;;;;;5095430;28;20016;-69
2020/12/13 11:23:43;;;;;;;80.72;35.50;;;8.60;99.90;;;;;;5097211;28;20073;-69
2020/12/13 11:26:09;;;;;;;81.80;36.05;;;8.50;99.90;;;;;;5078473;28;20027;-69
2020/12/13 11:28:34;;;;;;;78.18;36.65;;;8.50;99.90;;;;;;5095412;28;20032;-69
2020/12/13 11:31:00;;;;;;;68.38;33.95;;;8.50;99.90;;;;;;5095120;28;20039;-69
2020/12/13 11:33:26;;;;;;;74.20;36.88;;;8.50;99.90;;;;;;5078355;28;20013;-69
2020/12/13 11:35:51;;;;;;;69.95;33.47;;;8.50;99.90;;;;;;5078316;28;20077;-69
2020/12/13 11:38:17;;;;;;;75.40;35.75;;;8.50;99.90;;;;;;5094331;28;20035;-69
2020/12/13 11:40:43;;;;;;;73.00;33.92;;;8.50;99.90;;;;;;5096762;28;20058;-69
2020/12/13 11:43:08;;;;;;;68.45;32.65;;;8.40;99.90;;;;;;5096518;28;20024;-69
2020/12/13 11:45:34;;;;;;;66.05;32.67;;;8.50;99.90;;;;;;5095348;28;20032;-69
2020/12/13 11:48:02;;;;;;;74.65;32.78;;;8.60;99.90;;;;;;5095247;28;20031;-69
2020/12/13 11:50:28;;;;;;;66.45;32.47;;;8.60;99.90;;;;;;5096622;28;20020;-69
2020/12/13 11:52:54;;;;;;;64.53;31.10;;;8.70;99.90;;;;;;5095669;28;20020;-69
2020/12/13 11:55:19;;;;;;;65.28;30.58;;;8.80;99.90;;;;;;5095106;28;20030;-69
2020/12/13 11:57:45;;;;;;;56.58;28.15;;;8.90;99.90;;;;;;5094671;28;20020;-69
2020/12/13 12:00:10;;;;;;;58.47;28.55;;;9.00;99.90;;;;;;5096504;28;20078;-69
2020/12/13 12:02:36;;;;;;;55.50;27.73;;;8.90;99.90;;;;;;5112357;27;20099;-69
2020/12/13 12:05:02;;;;;;;52.08;26.17;;;8.90;99.90;;;;;;5094966;28;20487;-69
2020/12/13 12:07:27;;;;;;;57.63;27.50;;;8.90;99.90;;;;;;5095128;28;20032;-69
2020/12/13 12:09:53;;;;;;;55.28;27.75;;;8.90;99.90;;;;;;5094874;28;20059;-69
2020/12/13 12:12:19;;;;;;;55.22;27.10;;;8.90;99.90;;;;;;5094197;28;20110;-69
2020/12/13 12:14:45;;;;;;;48.72;26.30;;;8.90;99.90;;;;;;5095074;28;20024;-69
2020/12/13 12:17:11;;;;;;;52.10;26.30;;;8.90;99.90;;;;;;5095656;28;20016;-69
2020/12/13 12:19:39;;;;;;;49.90;26.65;;;8.90;99.90;;;;;;5094994;28;20480;-69
2020/12/13 12:22:04;;;;;;;50.15;27.08;;;8.90;99.90;;;;;;5077771;28;20035;-69
2020/12/13 12:24:30;;;;;;;53.97;25.70;;;8.90;99.90;;;;;;5094607;28;20020;-69
2020/12/13 12:26:56;;;;;;;50.78;26.05;;;8.90;99.90;;;;;;5095016;28;20082;-70
2020/12/13 12:29:21;;;;;;;57.80;26.92;;;8.90;99.90;;;;;;5094262;28;20020;-69
2020/12/13 12:31:49;;;;;;;48.03;24.42;;;8.90;99.90;;;;;;5093951;28;20376;-69
2020/12/13 12:34:15;;;;;;;45.90;25.05;;;8.90;99.90;;;;;;5095881;28;20051;-69
2020/12/13 12:36:41;;;;;;;48.15;23.65;;;8.80;99.90;;;;;;5077182;28;20021;-69